sensor_id;sensor_type;location;lat;lon;timestamp;pressure;altitude;pressure_sealevel;temperature;humidity
13767;BME280;47980;48.794;9.176;2023-03-16T00:00:00;98637.81;;;2.23;100.00
13767;BME280;47980;48.794;9.176;2023-03-16T00:02:34;98636.47;;;2.21;100.00
13767;BME280;47980;48.794;9.176;2023-03-16T00:05:06;98648.81;;;2.35;100.00
13767;BME280;47980;48.794;9.176;2023-03-16T00:07:39;98641.47;;;2.32;100.00
13767;BME280;47980;48.794;9.176;2023-03-16T00:10:11;98637.53;;;2.25;100.00
13767;BME280;47980;48.794;9.176;2023-03-16T00:12:43;98643.03;;;2.28;100.00
13767;BME280;47980;48.794;9.176;2023-03-16T00:15:15;98640.41;;;2.18;100.00
13767;BME280;47980;48.794;9.176;2023-03-16T00:17:48;98632.28;;;2.14;100.00
13767;BME280;47980;48.794;9.176;2023-03-16T00:20:19;98639.34;;;2.19;100.00
13767;BME280;47980;48.794;9.176;2023-03-16T00:22:52;98637.53;;;2.20;100.00
13767;BME280;47980;48.794;9.176;2023-03-16T00:25:24;98643.50;;;2.10;100.00
13767;BME280;47980;48.794;9.176;2023-03-16T00:27:55;98640.69;;;2.22;100.00
13767;BME280;47980;48.794;9.176;2023-03-16T00:30:27;98635.63;;;2.05;100.00
13767;BME280;47980;48.794;9.176;2023-03-16T00:33:00;98639.03;;;2.10;100.00
13767;BME280;47980;48.794;9.176;2023-03-16T00:35:31;98639.84;;;2.11;100.00
13767;BME280;47980;48.794;9.176;2023-03-16T00:38:04;98638.22;;;2.00;100.00
13767;BME280;47980;48.794;9.176;2023-03-16T00:40:35;98641.38;;;2.02;100.00
13767;BME280;47980;48.794;9.176;2023-03-16T00:43:07;98647.44;;;2.12;100.00
13767;BME280;47980;48.794;9.176;2023-03-16T00:45:38;98645.03;;;2.06;100.00
13767;BME280;47980;48.794;9.176;2023-03-16T00:48:15;98640.03;;;1.99;100.00
13767;BME280;47980;48.794;9.176;2023-03-16T00:50:47;98636.13;;;2.02;100.00
13767;BME280;47980;48.794;9.176;2023-03-16T00:53:19;98639.53;;;2.02;100.00
13767;BME280;47980;48.794;9.176;2023-03-16T00:55:51;98628.56;;;2.05;100.00
13767;BME280;47980;48.794;9.176;2023-03-16T00:58:23;98631.69;;;2.02;100.00
13767;BME280;47980;48.794;9.176;2023-03-16T01:00:55;98636.63;;;1.99;100.00
13767;BME280;47980;48.794;9.176;2023-03-16T01:03:30;98630.63;;;1.98;100.00
13767;BME280;47980;48.794;9.176;2023-03-16T01:06:03;98631.91;;;1.96;100.00
13767;BME280;47980;48.794;9.176;2023-03-16T01:08:36;98633.72;;;1.90;100.00
13767;BME280;47980;48.794;9.176;2023-03-16T01:11:10;98623.44;;;1.73;100.00
13767;BME280;47980;48.794;9.176;2023-03-16T01:13:43;98636.03;;;1.81;100.00
13767;BME280;47980;48.794;9.176;2023-03-16T01:16:17;98634.22;;;1.82;100.00
13767;BME280;47980;48.794;9.176;2023-03-16T01:18:50;98631.34;;;1.83;100.00
13767;BME280;47980;48.794;9.176;2023-03-16T01:21:22;98625.88;;;1.90;100.00
13767;BME280;47980;48.794;9.176;2023-03-16T01:23:54;98622.00;;;1.98;100.00
13767;BME280;47980;48.794;9.176;2023-03-16T01:26:26;98634.72;;;1.79;100.00
13767;BME280;47980;48.794;9.176;2023-03-16T01:28:57;98627.09;;;1.72;100.00
13767;BME280;47980;48.794;9.176;2023-03-16T01:31:29;98631.03;;;1.75;100.00
13767;BME280;47980;48.794;9.176;2023-03-16T01:34:02;98624.53;;;1.82;100.00
13767;BME280;47980;48.794;9.176;2023-03-16T01:36:34;98620.88;;;1.78;100.00
13767;BME280;47980;48.794;9.176;2023-03-16T01:39:05;98614.09;;;1.82;100.00
13767;BME280;47980;48.794;9.176;2023-03-16T01:41:37;98619.09;;;1.89;100.00
13767;BME280;47980;48.794;9.176;2023-03-16T01:44:11;98614.13;;;1.92;100.00
13767;BME280;47980;48.794;9.176;2023-03-16T01:46:43;98620.88;;;1.83;100.00
13767;BME280;47980;48.794;9.176;2023-03-16T01:49:18;98612.50;;;1.81;100.00
13767;BME280;47980;48.794;9.176;2023-03-16T01:51:55;98620.09;;;1.83;100.00
13767;BME280;47980;48.794;9.176;2023-03-16T01:54:30;98608.06;;;1.82;100.00
13767;BME280;47980;48.794;9.176;2023-03-16T01:57:05;98614.03;;;1.77;100.00
13767;BME280;47980;48.794;9.176;2023-03-16T01:59:40;98615.09;;;1.76;100.00
13767;BME280;47980;48.794;9.176;2023-03-16T02:02:14;98607.75;;;1.73;100.00
13767;BME280;47980;48.794;9.176;2023-03-16T02:04:54;98606.34;;;1.55;100.00
13767;BME280;47980;48.794;9.176;2023-03-16T02:07:28;98608.72;;;1.62;100.00
13767;BME280;47980;48.794;9.176;2023-03-16T02:10:05;98604.28;;;1.57;100.00
13767;BME280;47980;48.794;9.176;2023-03-16T02:12:37;98605.59;;;1.60;100.00
13767;BME280;47980;48.794;9.176;2023-03-16T02:15:10;98594.59;;;1.53;100.00
13767;BME280;47980;48.794;9.176;2023-03-16T02:17:44;98598.22;;;1.52;100.00
13767;BME280;47980;48.794;9.176;2023-03-16T02:20:28;98585.69;;;1.54;100.00
13767;BME280;47980;48.794;9.176;2023-03-16T02:23:03;98589.84;;;1.50;100.00
13767;BME280;47980;48.794;9.176;2023-03-16T02:25:40;98585.41;;;1.50;100.00
13767;BME280;47980;48.794;9.176;2023-03-16T02:28:18;98588.81;;;1.51;100.00
13767;BME280;47980;48.794;9.176;2023-03-16T02:30:54;98587.53;;;1.53;100.00
13767;BME280;47980;48.794;9.176;2023-03-16T02:33:27;98596.88;;;1.44;100.00
13767;BME280;47980;48.794;9.176;2023-03-16T02:35:59;98596.09;;;1.49;100.00
13767;BME280;47980;48.794;9.176;2023-03-16T02:38:30;98592.22;;;1.51;100.00
13767;BME280;47980;48.794;9.176;2023-03-16T02:41:09;98583.34;;;1.57;100.00
13767;BME280;47980;48.794;9.176;2023-03-16T02:43:45;98586.81;;;1.68;100.00
13767;BME280;47980;48.794;9.176;2023-03-16T02:46:22;98591.78;;;1.69;100.00
13767;BME280;47980;48.794;9.176;2023-03-16T02:48:59;98580.75;;;1.62;100.00
13767;BME280;47980;48.794;9.176;2023-03-16T02:51:33;98582.09;;;1.65;100.00
13767;BME280;47980;48.794;9.176;2023-03-16T02:54:05;98581.75;;;1.51;100.00
13767;BME280;47980;48.794;9.176;2023-03-16T02:56:36;98575.53;;;1.57;100.00
13767;BME280;47980;48.794;9.176;2023-03-16T02:59:09;98577.28;;;1.47;100.00
13767;BME280;47980;48.794;9.176;2023-03-16T03:01:42;98572.28;;;1.45;100.00
13767;BME280;47980;48.794;9.176;2023-03-16T03:04:14;98567.34;;;1.43;100.00
13767;BME280;47980;48.794;9.176;2023-03-16T03:06:46;98558.22;;;1.51;100.00
13767;BME280;47980;48.794;9.176;2023-03-16T03:09:18;98566.63;;;1.53;100.00
13767;BME280;47980;48.794;9.176;2023-03-16T03:11:50;98567.31;;;1.38;100.00
13767;BME280;47980;48.794;9.176;2023-03-16T03:14:21;98559.66;;;1.27;100.00
13767;BME280;47980;48.794;9.176;2023-03-16T03:16:55;98569.09;;;1.33;100.00
13767;BME280;47980;48.794;9.176;2023-03-16T03:19:27;98578.22;;;1.30;100.00
13767;BME280;47980;48.794;9.176;2023-03-16T03:21:59;98577.69;;;1.28;100.00
13767;BME280;47980;48.794;9.176;2023-03-16T03:24:33;98573.53;;;1.32;100.00
13767;BME280;47980;48.794;9.176;2023-03-16T03:27:05;98571.94;;;1.26;100.00
13767;BME280;47980;48.794;9.176;2023-03-16T03:29:36;98562.81;;;1.34;100.00
13767;BME280;47980;48.794;9.176;2023-03-16T03:32:10;98556.53;;;1.30;100.00
13767;BME280;47980;48.794;9.176;2023-03-16T03:34:42;98552.09;;;1.30;100.00
13767;BME280;47980;48.794;9.176;2023-03-16T03:37:13;98546.41;;;1.38;100.00
13767;BME280;47980;48.794;9.176;2023-03-16T03:39:45;98552.94;;;1.41;100.00
13767;BME280;47980;48.794;9.176;2023-03-16T03:42:17;98563.34;;;1.31;100.00
13767;BME280;47980;48.794;9.176;2023-03-16T03:44:49;98550.09;;;1.48;100.00
13767;BME280;47980;48.794;9.176;2023-03-16T03:47:22;98552.97;;;1.46;100.00
13767;BME280;47980;48.794;9.176;2023-03-16T03:49:54;98546.97;;;1.46;100.00
13767;BME280;47980;48.794;9.176;2023-03-16T03:52:27;98550.16;;;1.53;100.00
13767;BME280;47980;48.794;9.176;2023-03-16T03:54:58;98554.03;;;1.50;100.00
13767;BME280;47980;48.794;9.176;2023-03-16T03:57:30;98548.00;;;1.44;100.00
13767;BME280;47980;48.794;9.176;2023-03-16T04:00:02;98541.69;;;1.40;100.00
13767;BME280;47980;48.794;9.176;2023-03-16T04:02:39;98543.31;;;1.52;100.00
13767;BME280;47980;48.794;9.176;2023-03-16T04:05:10;98537.59;;;1.50;100.00
13767;BME280;47980;48.794;9.176;2023-03-16T04:07:42;98532.59;;;1.48;100.00
13767;BME280;47980;48.794;9.176;2023-03-16T04:10:14;98541.47;;;1.47;100.00
13767;BME280;47980;48.794;9.176;2023-03-16T04:12:45;98541.50;;;1.52;100.00
13767;BME280;47980;48.794;9.176;2023-03-16T04:15:17;98539.94;;;1.51;100.00
13767;BME280;47980;48.794;9.176;2023-03-16T04:17:50;98543.09;;;1.58;100.00
13767;BME280;47980;48.794;9.176;2023-03-16T04:20:22;98541.03;;;1.65;100.00
13767;BME280;47980;48.794;9.176;2023-03-16T04:22:54;98546.81;;;1.67;100.00
13767;BME280;47980;48.794;9.176;2023-03-16T04:25:27;98542.59;;;1.66;100.00
13767;BME280;47980;48.794;9.176;2023-03-16T04:27:59;98532.41;;;1.65;100.00
13767;BME280;47980;48.794;9.176;2023-03-16T04:30:31;98536.09;;;1.69;100.00
13767;BME280;47980;48.794;9.176;2023-03-16T04:33:05;98526.91;;;1.66;100.00
13767;BME280;47980;48.794;9.176;2023-03-16T04:35:37;98521.50;;;1.78;100.00
13767;BME280;47980;48.794;9.176;2023-03-16T04:38:08;98527.19;;;1.70;100.00
13767;BME280;47980;48.794;9.176;2023-03-16T04:40:41;98521.41;;;1.63;100.00
13767;BME280;47980;48.794;9.176;2023-03-16T04:43:13;98513.28;;;1.59;100.00
13767;BME280;47980;48.794;9.176;2023-03-16T04:45:44;98529.47;;;1.51;100.00
13767;BME280;47980;48.794;9.176;2023-03-16T04:48:17;98522.44;;;1.57;100.00
13767;BME280;47980;48.794;9.176;2023-03-16T04:50:49;98517.72;;;1.54;100.00
13767;BME280;47980;48.794;9.176;2023-03-16T04:53:20;98522.69;;;1.50;100.00
13767;BME280;47980;48.794;9.176;2023-03-16T04:55:52;98522.69;;;1.50;100.00
13767;BME280;47980;48.794;9.176;2023-03-16T04:58:24;98520.59;;;1.52;100.00
13767;BME280;47980;48.794;9.176;2023-03-16T05:00:56;98519.81;;;1.52;100.00
13767;BME280;47980;48.794;9.176;2023-03-16T05:03:29;98523.75;;;1.59;100.00
13767;BME280;47980;48.794;9.176;2023-03-16T05:06:01;98519.56;;;1.58;100.00
13767;BME280;47980;48.794;9.176;2023-03-16T05:08:34;98517.72;;;1.54;100.00
13767;BME280;47980;48.794;9.176;2023-03-16T05:11:06;98526.63;;;1.53;100.00
13767;BME280;47980;48.794;9.176;2023-03-16T05:13:37;98519.53;;;1.48;100.00
13767;BME280;47980;48.794;9.176;2023-03-16T05:16:09;98522.19;;;1.58;100.00
13767;BME280;47980;48.794;9.176;2023-03-16T05:18:42;98522.13;;;1.48;100.00
13767;BME280;47980;48.794;9.176;2023-03-16T05:21:14;98517.97;;;1.47;100.00
13767;BME280;47980;48.794;9.176;2023-03-16T05:23:45;98511.66;;;1.43;100.00
13767;BME280;47980;48.794;9.176;2023-03-16T05:26:17;98516.94;;;1.53;100.00
13767;BME280;47980;48.794;9.176;2023-03-16T05:28:49;98516.41;;;1.51;100.00
13767;BME280;47980;48.794;9.176;2023-03-16T05:31:21;98518.78;;;1.53;100.00
13767;BME280;47980;48.794;9.176;2023-03-16T05:33:54;98512.47;;;1.49;100.00
13767;BME280;47980;48.794;9.176;2023-03-16T05:36:26;98511.69;;;1.48;100.00
13767;BME280;47980;48.794;9.176;2023-03-16T05:38:58;98511.41;;;1.44;100.00
13767;BME280;47980;48.794;9.176;2023-03-16T05:41:29;98511.97;;;1.52;100.00
13767;BME280;47980;48.794;9.176;2023-03-16T05:44:01;98520.88;;;1.56;100.00
13767;BME280;47980;48.794;9.176;2023-03-16T05:46:33;98508.59;;;1.56;100.00
13767;BME280;47980;48.794;9.176;2023-03-16T05:49:06;98508.38;;;1.73;100.00
13767;BME280;47980;48.794;9.176;2023-03-16T05:51:38;98504.22;;;1.72;100.00
13767;BME280;47980;48.794;9.176;2023-03-16T05:54:09;98509.47;;;1.82;100.00
13767;BME280;47980;48.794;9.176;2023-03-16T05:56:41;98497.41;;;1.76;100.00
13767;BME280;47980;48.794;9.176;2023-03-16T05:59:13;98503.47;;;1.87;100.00
13767;BME280;47980;48.794;9.176;2023-03-16T06:01:45;98499.03;;;1.87;100.00
13767;BME280;47980;48.794;9.176;2023-03-16T06:04:18;98492.50;;;1.95;100.00
13767;BME280;47980;48.794;9.176;2023-03-16T06:06:50;98505.59;;;2.05;100.00
13767;BME280;47980;48.794;9.176;2023-03-16T06:09:22;98506.94;;;2.08;100.00
13767;BME280;47980;48.794;9.176;2023-03-16T06:11:54;98506.97;;;2.18;100.00
13767;BME280;47980;48.794;9.176;2023-03-16T06:14:25;98509.56;;;2.28;100.00
13767;BME280;47980;48.794;9.176;2023-03-16T06:16:57;98505.91;;;2.29;100.00
13767;BME280;47980;48.794;9.176;2023-03-16T06:19:30;98513.78;;;2.34;100.00
13767;BME280;47980;48.794;9.176;2023-03-16T06:22:02;98502.00;;;2.37;100.00
13767;BME280;47980;48.794;9.176;2023-03-16T06:24:33;98502.00;;;2.42;100.00
13767;BME280;47980;48.794;9.176;2023-03-16T06:27:05;98504.63;;;2.52;100.00
13767;BME280;47980;48.794;9.176;2023-03-16T06:29:36;98502.53;;;2.64;100.00
13767;BME280;47980;48.794;9.176;2023-03-16T06:32:08;98510.63;;;2.68;100.00
13767;BME280;47980;48.794;9.176;2023-03-16T06:34:41;98519.81;;;2.91;98.49
13767;BME280;47980;48.794;9.176;2023-03-16T06:37:13;98512.47;;;2.88;98.40
13767;BME280;47980;48.794;9.176;2023-03-16T06:39:45;98520.06;;;3.00;97.60
13767;BME280;47980;48.794;9.176;2023-03-16T06:42:16;98515.84;;;3.04;95.52
13767;BME280;47980;48.794;9.176;2023-03-16T06:44:48;98508.50;;;3.11;94.99
13767;BME280;47980;48.794;9.176;2023-03-16T06:47:20;98517.91;;;3.32;94.06
13767;BME280;47980;48.794;9.176;2023-03-16T06:49:53;98510.28;;;3.36;94.26
13767;BME280;47980;48.794;9.176;2023-03-16T06:52:25;98515.72;;;3.60;93.17
13767;BME280;47980;48.794;9.176;2023-03-16T06:54:56;98518.72;;;3.93;93.40
13767;BME280;47980;48.794;9.176;2023-03-16T06:57:28;98515.22;;;3.53;91.38
13767;BME280;47980;48.794;9.176;2023-03-16T07:00:00;98514.09;;;3.69;91.34
13767;BME280;47980;48.794;9.176;2023-03-16T07:02:33;98517.75;;;3.78;91.87
13767;BME280;47980;48.794;9.176;2023-03-16T07:05:07;98514.66;;;3.61;91.23
13767;BME280;47980;48.794;9.176;2023-03-16T07:07:40;98517.50;;;3.75;90.30
13767;BME280;47980;48.794;9.176;2023-03-16T07:10:14;98512.53;;;3.63;90.01
13767;BME280;47980;48.794;9.176;2023-03-16T07:12:46;98521.78;;;3.50;90.52
13767;BME280;47980;48.794;9.176;2023-03-16T07:15:19;98529.84;;;3.69;89.93
13767;BME280;47980;48.794;9.176;2023-03-16T07:17:51;98524.59;;;3.74;88.26
13767;BME280;47980;48.794;9.176;2023-03-16T07:20:24;98524.75;;;3.93;88.88
13767;BME280;47980;48.794;9.176;2023-03-16T07:22:57;98521.94;;;4.29;87.69
13767;BME280;47980;48.794;9.176;2023-03-16T07:25:29;98530.84;;;4.28;85.99
13767;BME280;47980;48.794;9.176;2023-03-16T07:28:02;98522.13;;;3.93;86.11
13767;BME280;47980;48.794;9.176;2023-03-16T07:30:33;98524.09;;;4.17;86.83
13767;BME280;47980;48.794;9.176;2023-03-16T07:33:05;98529.34;;;4.17;86.06
13767;BME280;47980;48.794;9.176;2023-03-16T07:35:38;98533.38;;;4.04;85.17
13767;BME280;47980;48.794;9.176;2023-03-16T07:38:10;98519.31;;;4.24;85.31
13767;BME280;47980;48.794;9.176;2023-03-16T07:40:42;98517.97;;;4.31;84.22
13767;BME280;47980;48.794;9.176;2023-03-16T07:43:13;98530.66;;;4.58;83.60
13767;BME280;47980;48.794;9.176;2023-03-16T07:45:47;98531.56;;;4.39;83.29
13767;BME280;47980;48.794;9.176;2023-03-16T07:48:19;98525.94;;;4.55;83.75
13767;BME280;47980;48.794;9.176;2023-03-16T07:50:53;98526.13;;;4.69;84.15
13767;BME280;47980;48.794;9.176;2023-03-16T07:53:24;98525.28;;;5.03;81.99
13767;BME280;47980;48.794;9.176;2023-03-16T07:55:56;98531.00;;;4.81;82.33
13767;BME280;47980;48.794;9.176;2023-03-16T07:58:27;98527.97;;;4.98;82.24
13767;BME280;47980;48.794;9.176;2023-03-16T08:00:59;98538.06;;;4.86;81.55
13767;BME280;47980;48.794;9.176;2023-03-16T08:03:38;98519.72;;;5.10;80.37
13767;BME280;47980;48.794;9.176;2023-03-16T08:06:23;98528.81;;;5.46;77.75
13767;BME280;47980;48.794;9.176;2023-03-16T08:08:56;98529.78;;;5.26;77.94
13767;BME280;47980;48.794;9.176;2023-03-16T08:11:28;98529.69;;;5.37;78.37
13767;BME280;47980;48.794;9.176;2023-03-16T08:14:00;98523.78;;;5.50;77.88
13767;BME280;47980;48.794;9.176;2023-03-16T08:16:31;98532.41;;;5.55;76.57
13767;BME280;47980;48.794;9.176;2023-03-16T08:19:03;98530.00;;;6.02;76.15
13767;BME280;47980;48.794;9.176;2023-03-16T08:21:36;98526.38;;;6.17;74.75
13767;BME280;47980;48.794;9.176;2023-03-16T08:24:08;98525.47;;;6.08;74.24
13767;BME280;47980;48.794;9.176;2023-03-16T08:26:40;98526.16;;;5.94;74.99
13767;BME280;47980;48.794;9.176;2023-03-16T08:29:11;98527.31;;;6.07;72.79
13767;BME280;47980;48.794;9.176;2023-03-16T08:31:43;98519.50;;;6.40;70.95
13767;BME280;47980;48.794;9.176;2023-03-16T08:34:16;98512.22;;;6.50;71.59
13767;BME280;47980;48.794;9.176;2023-03-16T08:36:51;98517.44;;;6.69;72.58
13767;BME280;47980;48.794;9.176;2023-03-16T08:39:23;98514.09;;;6.64;71.53
13767;BME280;47980;48.794;9.176;2023-03-16T08:41:55;98511.88;;;6.71;72.22
13767;BME280;47980;48.794;9.176;2023-03-16T08:44:26;98507.53;;;6.80;70.24
13767;BME280;47980;48.794;9.176;2023-03-16T08:46:58;98509.69;;;6.92;71.83
13767;BME280;47980;48.794;9.176;2023-03-16T08:49:32;98504.00;;;7.31;70.67
13767;BME280;47980;48.794;9.176;2023-03-16T08:52:06;98498.72;;;7.45;69.81
13767;BME280;47980;48.794;9.176;2023-03-16T08:54:39;98498.31;;;7.38;68.54
13767;BME280;47980;48.794;9.176;2023-03-16T08:57:13;98497.72;;;7.55;70.28
13767;BME280;47980;48.794;9.176;2023-03-16T08:59:44;98492.75;;;7.39;67.63
13767;BME280;47980;48.794;9.176;2023-03-16T09:02:16;98492.94;;;7.43;68.27
13767;BME280;47980;48.794;9.176;2023-03-16T09:04:48;98488.44;;;7.71;64.80
13767;BME280;47980;48.794;9.176;2023-03-16T09:07:21;98494.66;;;7.89;67.16
13767;BME280;47980;48.794;9.176;2023-03-16T09:09:53;98493.91;;;8.25;67.03
13767;BME280;47980;48.794;9.176;2023-03-16T09:12:26;98496.53;;;8.25;65.76
13767;BME280;47980;48.794;9.176;2023-03-16T09:15:00;98495.13;;;8.05;64.47
13767;BME280;47980;48.794;9.176;2023-03-16T09:17:33;98487.97;;;8.41;65.91
13767;BME280;47980;48.794;9.176;2023-03-16T09:20:07;98492.13;;;8.20;66.54
13767;BME280;47980;48.794;9.176;2023-03-16T09:22:41;98482.88;;;8.09;64.23
13767;BME280;47980;48.794;9.176;2023-03-16T09:25:13;98478.91;;;8.20;64.20
13767;BME280;47980;48.794;9.176;2023-03-16T09:27:44;98473.31;;;8.58;62.57
13767;BME280;47980;48.794;9.176;2023-03-16T09:30:16;98461.28;;;8.74;64.23
13767;BME280;47980;48.794;9.176;2023-03-16T09:32:49;98462.72;;;8.80;62.93
13767;BME280;47980;48.794;9.176;2023-03-16T09:35:20;98470.06;;;8.92;62.96
13767;BME280;47980;48.794;9.176;2023-03-16T09:37:54;98472.94;;;8.73;60.62
13767;BME280;47980;48.794;9.176;2023-03-16T09:40:27;98477.69;;;9.25;61.36
13767;BME280;47980;48.794;9.176;2023-03-16T09:46:05;98472.13;;;9.35;59.93
13767;BME280;47980;48.794;9.176;2023-03-16T09:48:39;98454.63;;;9.16;58.83
13767;BME280;47980;48.794;9.176;2023-03-16T09:51:17;98450.28;;;9.29;60.01
13767;BME280;47980;48.794;9.176;2023-03-16T09:53:54;98454.66;;;9.25;58.05
13767;BME280;47980;48.794;9.176;2023-03-16T10:06:34;98442.59;;;9.68;57.95
13767;BME280;47980;48.794;9.176;2023-03-16T10:09:20;98448.19;;;9.57;57.03
13767;BME280;47980;48.794;9.176;2023-03-16T10:11:56;98445.13;;;9.90;57.03
13767;BME280;47980;48.794;9.176;2023-03-16T10:14:32;98435.00;;;10.09;54.95
13767;BME280;47980;48.794;9.176;2023-03-16T10:17:14;98441.22;;;10.31;54.14
13767;BME280;47980;48.794;9.176;2023-03-16T10:19:49;98443.94;;;10.78;55.51
13767;BME280;47980;48.794;9.176;2023-03-16T10:22:23;98452.47;;;10.10;54.25
13767;BME280;47980;48.794;9.176;2023-03-16T10:25:01;98450.06;;;10.70;55.12
13767;BME280;47980;48.794;9.176;2023-03-16T10:27:39;98445.56;;;10.53;55.65
13767;BME280;47980;48.794;9.176;2023-03-16T10:30:22;98440.22;;;10.79;53.57
13767;BME280;47980;48.794;9.176;2023-03-16T10:32:55;98428.28;;;10.47;53.30
13767;BME280;47980;48.794;9.176;2023-03-16T10:35:39;98430.34;;;10.88;54.25
13767;BME280;47980;48.794;9.176;2023-03-16T10:38:27;98426.94;;;11.17;52.34
13767;BME280;47980;48.794;9.176;2023-03-16T10:41:02;98423.31;;;10.92;54.77
13767;BME280;47980;48.794;9.176;2023-03-16T10:43:33;98428.78;;;10.87;54.42
13767;BME280;47980;48.794;9.176;2023-03-16T10:46:09;98424.69;;;10.43;55.01
13767;BME280;47980;48.794;9.176;2023-03-16T10:48:41;98430.88;;;10.73;53.93
13767;BME280;47980;48.794;9.176;2023-03-16T10:51:14;98422.53;;;10.27;54.16
13767;BME280;47980;48.794;9.176;2023-03-16T10:53:47;98420.59;;;10.63;53.79
13767;BME280;47980;48.794;9.176;2023-03-16T10:56:23;98406.06;;;10.60;51.20
13767;BME280;47980;48.794;9.176;2023-03-16T10:58:55;98401.22;;;10.71;52.04
13767;BME280;47980;48.794;9.176;2023-03-16T11:01:28;98397.09;;;10.18;53.22
13767;BME280;47980;48.794;9.176;2023-03-16T11:04:01;98379.31;;;10.35;52.84
13767;BME280;47980;48.794;9.176;2023-03-16T11:06:33;98390.09;;;10.77;53.22
13767;BME280;47980;48.794;9.176;2023-03-16T11:09:09;98389.81;;;11.08;53.96
13767;BME280;47980;48.794;9.176;2023-03-16T11:11:48;98388.63;;;11.27;51.36
13767;BME280;47980;48.794;9.176;2023-03-16T11:14:22;98395.06;;;11.26;51.64
13767;BME280;47980;48.794;9.176;2023-03-16T11:16:59;98402.59;;;11.15;52.35
13767;BME280;47980;48.794;9.176;2023-03-16T11:19:36;98396.19;;;11.16;52.49
13767;BME280;47980;48.794;9.176;2023-03-16T11:22:14;98393.13;;;11.05;53.49
13767;BME280;47980;48.794;9.176;2023-03-16T11:24:49;98387.69;;;10.55;53.63
13767;BME280;47980;48.794;9.176;2023-03-16T11:27:28;98379.75;;;10.93;52.23
13767;BME280;47980;48.794;9.176;2023-03-16T11:30:07;98375.91;;;11.41;52.24
13767;BME280;47980;48.794;9.176;2023-03-16T11:32:45;98384.19;;;11.10;54.04
13767;BME280;47980;48.794;9.176;2023-03-16T11:35:19;98370.34;;;11.04;53.27
13767;BME280;47980;48.794;9.176;2023-03-16T11:38:10;98377.72;;;11.49;52.42
13767;BME280;47980;48.794;9.176;2023-03-16T11:40:50;98372.31;;;11.58;52.08
13767;BME280;47980;48.794;9.176;2023-03-16T11:43:46;98375.88;;;11.83;51.84
13767;BME280;47980;48.794;9.176;2023-03-16T11:46:22;98370.25;;;11.64;48.41
13767;BME280;47980;48.794;9.176;2023-03-16T11:49:01;98364.31;;;11.88;49.06
13767;BME280;47980;48.794;9.176;2023-03-16T11:51:42;98369.22;;;11.56;50.74
13767;BME280;47980;48.794;9.176;2023-03-16T11:54:37;98359.41;;;11.27;51.66
13767;BME280;47980;48.794;9.176;2023-03-16T11:57:26;98357.22;;;11.50;51.76
13767;BME280;47980;48.794;9.176;2023-03-16T12:00:10;98345.69;;;11.25;51.84
13767;BME280;47980;48.794;9.176;2023-03-16T12:02:53;98338.25;;;11.60;51.13
13767;BME280;47980;48.794;9.176;2023-03-16T12:05:38;98333.72;;;11.61;51.65
13767;BME280;47980;48.794;9.176;2023-03-16T12:08:26;98345.25;;;11.44;51.30
13767;BME280;47980;48.794;9.176;2023-03-16T12:11:06;98330.84;;;11.24;50.99
13767;BME280;47980;48.794;9.176;2023-03-16T12:13:54;98323.28;;;11.55;51.89
13767;BME280;47980;48.794;9.176;2023-03-16T12:16:34;98313.47;;;11.68;50.99
13767;BME280;47980;48.794;9.176;2023-03-16T12:19:15;98320.16;;;11.53;49.90
13767;BME280;47980;48.794;9.176;2023-03-16T12:21:58;98307.00;;;11.78;48.94
13767;BME280;47980;48.794;9.176;2023-03-16T12:24:35;98318.28;;;12.08;49.99
13767;BME280;47980;48.794;9.176;2023-03-16T12:27:14;98327.91;;;11.79;51.59
13767;BME280;47980;48.794;9.176;2023-03-16T12:29:57;98326.84;;;12.14;49.39
13767;BME280;47980;48.794;9.176;2023-03-16T12:32:41;98318.16;;;12.04;49.89
13767;BME280;47980;48.794;9.176;2023-03-16T12:35:24;98320.81;;;11.92;47.74
13767;BME280;47980;48.794;9.176;2023-03-16T12:38:13;98310.38;;;12.20;49.01
13767;BME280;47980;48.794;9.176;2023-03-16T12:40:58;98309.06;;;12.39;48.58
13767;BME280;47980;48.794;9.176;2023-03-16T12:43:45;98310.13;;;12.25;47.87
13767;BME280;47980;48.794;9.176;2023-03-16T12:46:25;98307.19;;;12.64;47.93
13767;BME280;47980;48.794;9.176;2023-03-16T12:49:01;98304.97;;;12.90;47.43
13767;BME280;47980;48.794;9.176;2023-03-16T12:51:36;98298.75;;;12.86;46.06
13767;BME280;47980;48.794;9.176;2023-03-16T12:54:17;98298.31;;;12.60;46.54
13767;BME280;47980;48.794;9.176;2023-03-16T12:56:51;98297.88;;;12.70;46.74
13767;BME280;47980;48.794;9.176;2023-03-16T12:59:35;98281.28;;;13.13;46.12
13767;BME280;47980;48.794;9.176;2023-03-16T13:02:13;98290.31;;;12.96;45.39
13767;BME280;47980;48.794;9.176;2023-03-16T13:04:55;98279.13;;;12.79;46.29
13767;BME280;47980;48.794;9.176;2023-03-16T13:07:29;98282.56;;;12.79;46.32
13767;BME280;47980;48.794;9.176;2023-03-16T13:10:06;98278.03;;;12.67;47.17
13767;BME280;47980;48.794;9.176;2023-03-16T13:12:40;98282.34;;;12.72;47.13
13767;BME280;47980;48.794;9.176;2023-03-16T13:15:26;98273.69;;;12.38;46.51
13767;BME280;47980;48.794;9.176;2023-03-16T13:18:05;98276.69;;;12.24;48.30
13767;BME280;47980;48.794;9.176;2023-03-16T13:20:54;98282.09;;;12.52;47.96
13767;BME280;47980;48.794;9.176;2023-03-16T13:23:54;98277.91;;;12.64;46.87
13767;BME280;47980;48.794;9.176;2023-03-16T13:26:37;98279.91;;;12.67;48.08
13767;BME280;47980;48.794;9.176;2023-03-16T13:29:19;98273.47;;;12.68;48.04
13767;BME280;47980;48.794;9.176;2023-03-16T13:31:53;98263.69;;;12.23;47.11
13767;BME280;47980;48.794;9.176;2023-03-16T13:34:28;98263.78;;;12.02;47.24
13767;BME280;47980;48.794;9.176;2023-03-16T13:37:02;98256.38;;;12.20;49.39
13767;BME280;47980;48.794;9.176;2023-03-16T13:39:33;98262.50;;;12.33;48.19
13767;BME280;47980;48.794;9.176;2023-03-16T13:42:14;98260.91;;;12.19;48.13
13767;BME280;47980;48.794;9.176;2023-03-16T13:44:47;98253.53;;;12.49;49.27
13767;BME280;47980;48.794;9.176;2023-03-16T13:47:19;98257.50;;;12.68;46.49
13767;BME280;47980;48.794;9.176;2023-03-16T13:49:55;98252.53;;;12.54;47.12
13767;BME280;47980;48.794;9.176;2023-03-16T13:52:30;98254.50;;;12.20;47.59